Time;durP1;ratioP1;P1;durP2;ratioP2;P2;SDS_P1;SDS_P2;PMS_P1;PMS_P2;Temp;Humidity;BMP_temperature;BMP_pressure;BME280_temperature;BME280_humidity;BME280_pressure;Samples;Min_cycle;Max_cycle;Signal;HPM_P1;HPM_P2
2024/04/18 00:00:24;;;;;;;8.05;5.30;;;;;;;12.31;47.35;96645.91;5247875;27;20628;-81
2024/04/18 00:02:50;;;;;;;8.95;4.95;;;;;;;12.35;47.41;96646.13;5200190;27;20033;-80
2024/04/18 00:05:18;;;;;;;8.25;5.60;;;;;;;12.15;47.39;96623.53;5213115;27;20086;-81
2024/04/18 00:07:44;;;;;;;8.48;5.68;;;;;;;12.34;47.51;96650.59;5240880;27;20081;-80
2024/04/18 00:10:09;;;;;;;7.53;4.75;;;;;;;12.34;47.53;96652.44;5202791;27;20027;-81
2024/04/18 00:12:34;;;;;;;6.50;4.35;;;;;;;12.35;47.40;96653.97;5239408;27;20014;-80
2024/04/18 00:15:00;;;;;;;6.50;4.38;;;;;;;12.30;47.45;96660.03;5233644;27;20011;-81
2024/04/18 00:17:25;;;;;;;7.75;4.68;;;;;;;12.03;47.39;96629.06;5238923;27;20036;-81
2024/04/18 00:19:51;;;;;;;7.28;4.88;;;;;;;12.28;47.61;96653.50;5225888;27;20019;-81
2024/04/18 00:22:16;;;;;;;7.32;4.78;;;;;;;12.25;47.40;96646.19;5221887;27;20011;-81
2024/04/18 00:24:42;;;;;;;7.15;4.75;;;;;;;12.20;47.70;96636.56;5239449;27;20022;-81
2024/04/18 00:27:07;;;;;;;8.13;5.38;;;;;;;12.39;47.22;96657.63;5246251;27;20025;-80
2024/04/18 00:29:35;;;;;;;7.85;5.70;;;;;;;12.42;47.16;96657.06;5235436;27;20015;-81
2024/04/18 00:32:02;;;;;;;8.30;5.35;;;;;;;12.28;47.79;96648.25;5225068;27;20012;-81
2024/04/18 00:34:28;;;;;;;7.90;5.57;;;;;;;12.25;47.74;96651.41;5225559;27;20012;-81
2024/04/18 00:36:53;;;;;;;7.20;4.93;;;;;;;12.32;47.41;96651.88;5222491;27;20363;-80
2024/04/18 00:39:19;;;;;;;8.48;5.72;;;;;;;12.22;47.35;96637.06;5211501;27;20043;-81
2024/04/18 00:41:44;;;;;;;7.45;4.95;;;;;;;12.37;47.49;96657.09;5217441;27;20050;-82
2024/04/18 00:44:10;;;;;;;7.18;4.93;;;;;;;12.33;47.47;96643.03;5250378;27;20468;-81
2024/04/18 00:46:36;;;;;;;8.32;5.78;;;;;;;12.22;47.49;96644.09;5225831;27;20400;-81
2024/04/18 00:49:01;;;;;;;6.95;4.78;;;;;;;12.13;47.14;96623.00;5224259;27;20011;-82
2024/04/18 00:51:27;;;;;;;6.55;4.88;;;;;;;12.34;47.33;96653.19;5195664;27;20038;-84
2024/04/18 00:53:53;;;;;;;6.75;4.88;;;;;;;12.19;47.38;96627.16;5251678;27;20039;-83
2024/04/18 00:56:19;;;;;;;7.97;4.88;;;;;;;12.38;47.45;96653.44;5237227;27;20002;-83
2024/04/18 00:58:45;;;;;;;6.43;3.88;;;;;;;12.34;47.74;96649.81;5179852;27;20018;-83
2024/04/18 01:01:11;;;;;;;5.40;3.78;;;;;;;12.13;47.74;96623.00;5243323;27;20012;-83
2024/04/18 01:03:36;;;;;;;6.25;4.53;;;;;;;12.47;47.40;96649.22;5227674;27;20013;-82
2024/04/18 01:06:08;;;;;;;5.85;3.95;;;;;;;12.69;47.13;96650.66;5238060;27;20374;-83
2024/04/18 01:08:33;;;;;;;6.50;4.63;;;;;;;12.46;47.33;96652.88;5199975;27;20059;-82
2024/04/18 01:10:59;;;;;;;7.80;4.53;;;;;;;12.50;46.99;96653.91;5254587;27;20447;-83
2024/04/18 01:13:35;;;;;;;5.00;3.50;;;;;;;12.65;47.02;96654.88;5225084;27;20008;-81
2024/04/18 01:16:00;;;;;;;5.97;3.92;;;;;;;12.50;47.00;96653.13;5216334;27;20018;-84
2024/04/18 01:18:26;;;;;;;4.80;3.72;;;;;;;12.49;47.33;96654.97;5208935;27;20007;-83
2024/04/18 01:20:52;;;;;;;5.57;3.30;;;;;;;12.57;47.13;96658.06;5208538;27;20348;-82
2024/04/18 01:23:17;;;;;;;4.63;3.38;;;;;;;12.48;47.10;96656.00;5196099;27;20056;-83
2024/04/18 01:25:42;;;;;;;5.68;3.58;;;;;;;12.16;47.46;96631.06;5218365;27;20018;-82
2024/04/18 01:28:09;;;;;;;4.85;3.40;;;;;;;12.18;47.30;96633.41;5211327;27;20020;-84
2024/04/18 01:30:36;;;;;;;4.18;3.33;;;;;;;12.34;47.57;96660.25;5242258;27;20022;-84
2024/04/18 01:33:02;;;;;;;4.20;2.85;;;;;;;12.33;47.25;96656.84;5229922;27;20019;-81
2024/04/18 01:35:27;;;;;;;4.45;3.35;;;;;;;12.46;47.30;96654.72;5229021;27;20491;-82
2024/04/18 01:37:53;;;;;;;3.72;2.95;;;;;;;12.18;47.34;96636.84;5207882;27;20008;-82
2024/04/18 01:40:19;;;;;;;4.72;3.13;;;;;;;12.23;47.21;96638.63;5198517;27;20096;-87
2024/04/18 01:42:44;;;;;;;3.92;2.83;;;;;;;12.38;47.07;96666.50;5231793;27;20503;-84
2024/04/18 01:45:10;;;;;;;3.40;2.30;;;;;;;12.46;47.11;96650.28;5186416;27;20021;-87
2024/04/18 01:47:35;;;;;;;3.75;2.67;;;;;;;12.45;46.89;96653.16;5230183;27;20440;-84
2024/04/18 01:50:01;;;;;;;3.92;2.00;;;;;;;12.52;47.02;96664.06;5259481;27;20450;-84
2024/04/18 01:52:26;;;;;;;4.05;2.58;;;;;;;12.17;47.16;96631.88;5216455;27;20003;-83
2024/04/18 01:54:52;;;;;;;3.88;2.47;;;;;;;12.42;47.37;96667.50;5213001;27;20030;-82
2024/04/18 01:57:18;;;;;;;3.03;2.25;;;;;;;12.32;47.42;96659.72;5210431;27;20506;-82
2024/04/18 01:59:43;;;;;;;5.68;2.58;;;;;;;12.32;47.52;96672.78;5178612;27;20025;-83
2024/04/18 02:02:08;;;;;;;3.10;2.33;;;;;;;12.44;47.30;96664.63;5253224;27;20018;-83
2024/04/18 02:04:34;;;;;;;3.10;2.30;;;;;;;12.36;47.38;96668.59;5200085;27;20012;-85
2024/04/18 02:07:00;;;;;;;3.28;2.60;;;;;;;12.43;47.48;96660.47;5229520;27;20364;-82
2024/04/18 02:09:26;;;;;;;3.35;2.47;;;;;;;12.50;47.27;96671.41;5259319;27;20007;-84
2024/04/18 02:11:52;;;;;;;4.00;2.35;;;;;;;12.54;46.65;96670.59;5215957;27;20033;-85
2024/04/18 02:14:17;;;;;;;2.97;2.25;;;;;;;12.34;47.33;96660.25;5215747;27;20340;-86
2024/04/18 02:16:43;;;;;;;3.00;2.05;;;;;;;12.28;46.84;96656.09;5226452;27;20056;-82
2024/04/18 02:19:08;;;;;;;3.70;2.38;;;;;;;12.48;46.58;96673.50;5179032;27;20364;-84
2024/04/18 02:21:33;;;;;;;2.95;2.13;;;;;;;12.46;46.98;96676.38;5223650;27;20372;-83
2024/04/18 02:23:59;;;;;;;3.63;2.47;;;;;;;12.51;46.67;96676.38;5155274;27;20012;-83
2024/04/18 02:26:24;;;;;;;2.63;2.13;;;;;;;12.25;47.23;96646.19;5235846;27;20022;-82
2024/04/18 02:28:50;;;;;;;3.05;2.30;;;;;;;12.34;47.22;96650.59;5211306;27;20007;-82
2024/04/18 02:31:15;;;;;;;3.70;2.83;;;;;;;12.48;47.22;96676.91;5206248;27;20008;-83
2024/04/18 02:33:40;;;;;;;3.15;2.30;;;;;;;12.45;47.23;96668.81;5206694;27;20031;-82
2024/04/18 02:36:06;;;;;;;2.85;2.30;;;;;;;12.31;47.14;96661.56;5211421;27;20080;-82
2024/04/18 02:38:35;;;;;;;3.35;2.58;;;;;;;12.39;47.12;96678.50;5205825;27;20022;-87
2024/04/18 02:41:04;;;;;;;4.07;2.70;;;;;;;12.32;47.23;96659.72;5239926;21;20020;-87
2024/04/18 02:43:30;;;;;;;3.70;2.50;;;;;;;12.29;46.92;96655.84;5133244;27;20369;-88
2024/04/18 02:45:55;;;;;;;3.92;2.38;;;;;;;12.25;47.25;96651.41;5132491;27;20011;-88
2024/04/18 02:48:21;;;;;;;4.28;2.50;;;;;;;12.36;47.59;96684.25;5224761;27;20007;-90
2024/04/18 02:50:46;;;;;;;3.42;2.47;;;;;;;12.35;47.56;96682.69;5162035;27;20011;-88
2024/04/18 02:53:12;;;;;;;3.30;2.63;;;;;;;12.19;47.00;96663.69;5176896;27;20007;-87
2024/04/18 02:55:37;;;;;;;3.88;2.80;;;;;;;12.47;47.22;96671.94;5171391;27;20011;-88
2024/04/18 02:58:03;;;;;;;6.25;4.20;;;;;;;12.35;46.65;96661.81;5283857;21;20014;-88
2024/04/18 03:00:28;;;;;;;4.07;3.30;;;;;;;12.29;47.22;96668.13;5190268;27;20085;-88
2024/04/18 03:02:54;;;;;;;4.32;3.20;;;;;;;12.43;46.37;96661.25;5212435;27;20082;-89
2024/04/18 03:05:19;;;;;;;3.58;2.72;;;;;;;12.52;46.35;96680.53;5184229;27;20829;-88
2024/04/18 03:07:45;;;;;;;3.00;2.70;;;;;;;12.50;46.47;96692.28;5252256;22;20492;-89
2024/04/18 03:10:12;;;;;;;3.75;3.00;;;;;;;12.38;46.93;96684.78;5180882;27;20021;-87
2024/04/18 03:12:37;;;;;;;4.20;3.30;;;;;;;12.32;47.20;96691.84;5156766;27;20339;-88
2024/04/18 03:15:04;;;;;;;4.90;3.50;;;;;;;12.26;47.00;96685.06;5154474;27;20013;-88
2024/04/18 03:17:30;;;;;;;3.95;3.00;;;;;;;12.16;47.48;96695.56;5187283;27;20042;-90
2024/04/18 03:19:56;;;;;;;6.00;2.97;;;;;;;12.07;47.91;96697.94;5212503;27;20083;-87
2024/04/18 03:22:21;;;;;;;5.60;2.85;;;;;;;12.07;47.92;96705.75;5213654;27;20066;-89
2024/04/18 03:24:47;;;;;;;4.53;3.03;;;;;;;12.25;47.12;96704.41;5228388;27;20026;-89
2024/04/18 03:27:13;;;;;;;5.10;3.25;;;;;;;12.13;47.21;96699.47;5191640;27;20068;-90
2024/04/18 03:29:38;;;;;;;4.28;3.35;;;;;;;12.38;46.76;96710.88;5158095;27;20494;-87
2024/04/18 03:32:04;;;;;;;4.13;3.10;;;;;;;12.28;46.20;96696.03;5181115;27;20019;-88
2024/04/18 03:34:31;;;;;;;4.22;3.08;;;;;;;12.30;46.78;96708.81;5163587;27;20404;-87
2024/04/18 03:39:31;;;;;;;;;;;;;;;12.63;46.70;96719.66;5451884;22;20006;-88
2024/04/18 03:41:58;;;;;;;4.07;2.75;;;;;;;12.35;46.98;96721.84;5251266;26;19926;-88
2024/04/18 03:46:58;;;;;;;;;;;;;;;12.58;46.44;96727.50;5623996;21;20021;-87
2024/04/18 03:49:24;;;;;;;5.32;3.45;;;;;;;12.13;47.22;96725.59;5160263;27;19928;-81
2024/04/18 03:51:49;;;;;;;5.53;4.07;;;;;;;12.09;46.74;96721.16;5207079;27;20075;-85
2024/04/18 03:54:15;;;;;;;5.30;3.63;;;;;;;12.15;46.79;96726.09;5128566;27;20011;-81
2024/04/18 03:56:40;;;;;;;5.00;3.78;;;;;;;11.97;47.03;96711.00;5212044;27;20014;-85
2024/04/18 03:59:06;;;;;;;5.78;3.75;;;;;;;11.92;47.00;96706.56;5181795;27;20007;-84
2024/04/18 04:01:31;;;;;;;5.90;4.05;;;;;;;12.12;46.85;96737.06;5239661;27;20440;-85
2024/04/18 04:03:57;;;;;;;6.50;4.35;;;;;;;11.94;46.94;96711.50;5211677;27;20015;-89
2024/04/18 04:06:22;;;;;;;4.90;3.50;;;;;;;12.14;46.85;96744.63;5180913;27;20012;-85
2024/04/18 04:08:48;;;;;;;5.13;3.85;;;;;;;11.90;47.40;96713.06;5180545;27;20026;-83
2024/04/18 04:11:18;;;;;;;4.68;3.65;;;;;;;11.92;47.67;96726.66;5252673;27;20019;-89
2024/04/18 04:13:44;;;;;;;5.50;4.05;;;;;;;11.77;47.65;96741.25;5175668;27;20026;-86
2024/04/18 04:16:10;;;;;;;8.88;3.92;;;;;;;11.84;47.45;96750.63;5177983;27;20016;-86
2024/04/18 04:18:36;;;;;;;5.00;3.53;;;;;;;12.02;47.16;96757.19;5182076;27;20011;-83
2024/04/18 04:21:01;;;;;;;5.28;4.00;;;;;;;11.94;47.55;96766.31;5186346;27;20367;-83
2024/04/18 04:23:27;;;;;;;4.78;3.40;;;;;;;12.05;47.34;96775.69;5191533;27;20026;-85
2024/04/18 04:25:53;;;;;;;4.40;3.20;;;;;;;11.96;46.78;96765.00;5171277;27;20754;-89
2024/04/18 04:28:19;;;;;;;2.53;1.90;;;;;;;11.94;46.22;96761.88;5183730;27;20479;-87
2024/04/18 04:30:44;;;;;;;2.00;1.45;;;;;;;11.86;46.75;96772.81;5181918;27;20012;-86
2024/04/18 04:33:10;;;;;;;2.20;1.52;;;;;;;11.86;46.99;96777.22;5150290;27;20388;-87
2024/04/18 04:35:35;;;;;;;2.20;1.58;;;;;;;11.83;47.05;96790.81;5123260;27;20019;-83
2024/04/18 04:38:01;;;;;;;2.33;1.48;;;;;;;11.73;46.91;96786.38;5192208;27;20480;-88
2024/04/18 04:40:26;;;;;;;1.90;1.35;;;;;;;11.68;47.24;96794.97;5153980;27;20479;-83
2024/04/18 04:42:52;;;;;;;1.90;1.50;;;;;;;11.55;47.09;96772.00;5178547;27;20015;-84
2024/04/18 04:45:17;;;;;;;1.40;1.10;;;;;;;11.84;46.82;96794.97;5173120;27;20012;-85
2024/04/18 04:47:43;;;;;;;1.55;1.20;;;;;;;11.97;46.40;96804.91;5197691;27;20023;-85
2024/04/18 04:50:08;;;;;;;1.55;1.15;;;;;;;11.77;46.60;96810.88;5176008;27;20012;-85
2024/04/18 04:52:33;;;;;;;2.22;1.70;;;;;;;11.63;47.10;96805.41;5178756;27;20027;-84
2024/04/18 04:54:59;;;;;;;2.20;1.70;;;;;;;11.66;47.05;96811.94;5178993;27;20014;-86
2024/04/18 04:57:24;;;;;;;2.10;1.40;;;;;;;11.51;47.01;96799.66;5206240;27;20019;-85
2024/04/18 04:59:50;;;;;;;1.58;1.45;;;;;;;11.49;47.05;96793.94;5178183;27;20396;-85
2024/04/18 05:02:15;;;;;;;2.60;2.00;;;;;;;11.64;47.05;96824.47;5190631;27;20003;-83
2024/04/18 05:04:41;;;;;;;2.08;1.30;;;;;;;11.54;47.16;96807.75;5174852;27;20087;-85
2024/04/18 05:07:07;;;;;;;2.10;1.55;;;;;;;11.54;47.44;96810.34;5203522;27;20019;-82
2024/04/18 05:09:32;;;;;;;3.05;2.30;;;;;;;11.59;46.80;96810.34;5188173;27;20097;-86
2024/04/18 05:11:58;;;;;;;2.70;1.92;;;;;;;11.69;46.86;96835.66;5134769;27;20454;-87
2024/04/18 05:14:24;;;;;;;2.40;2.00;;;;;;;11.58;47.23;96842.72;5165612;27;20091;-83
2024/04/18 05:16:49;;;;;;;3.03;2.15;;;;;;;11.69;46.98;96837.50;5165425;27;20024;-84
2024/04/18 05:19:15;;;;;;;2.70;2.25;;;;;;;11.51;47.15;96820.53;5147564;27;20031;-85
2024/04/18 05:21:40;;;;;;;3.00;2.20;;;;;;;11.71;47.12;96843.25;5177675;27;20020;-85
2024/04/18 05:24:06;;;;;;;3.22;2.40;;;;;;;11.55;47.68;96847.63;5151210;27;20011;-83
2024/04/18 05:26:33;;;;;;;3.28;2.17;;;;;;;11.58;47.23;96826.25;5176663;27;20019;-83
2024/04/18 05:31:43;;;;;;;3.28;2.38;;;;;;;11.75;47.44;96852.09;5183440;27;20019;-83
2024/04/18 05:34:08;;;;;;;3.58;2.40;;;;;;;11.71;47.42;96859.66;5182411;27;20019;-84
2024/04/18 05:36:34;;;;;;;2.78;2.10;;;;;;;11.56;47.95;96859.63;5183612;27;20348;-85
2024/04/18 05:39:03;;;;;;;2.67;1.90;;;;;;;11.75;47.05;96852.88;5149624;27;20025;-86
2024/04/18 05:41:29;;;;;;;3.70;2.40;;;;;;;11.60;47.42;96863.28;5154475;27;20015;-89
2024/04/18 05:43:54;;;;;;;3.08;2.20;;;;;;;11.75;47.68;96881.56;5184568;27;20027;-86
2024/04/18 05:46:20;;;;;;;2.95;2.25;;;;;;;11.66;47.46;96877.13;5182757;27;20034;-84
2024/04/18 05:48:46;;;;;;;4.13;2.50;;;;;;;11.65;47.30;96873.72;5181389;27;20388;-87
2024/04/18 05:51:12;;;;;;;3.30;2.63;;;;;;;11.58;47.55;96858.34;5192960;27;20016;-88
2024/04/18 05:53:37;;;;;;;4.20;2.40;;;;;;;11.89;47.48;96884.47;5194537;27;20012;-85
2024/04/18 05:56:03;;;;;;;3.33;2.30;;;;;;;11.83;47.73;96882.91;5163159;27;20107;-84
2024/04/18 05:58:29;;;;;;;2.75;2.25;;;;;;;12.03;47.16;96889.19;5153598;27;20257;-85
2024/04/18 06:00:55;;;;;;;3.28;2.47;;;;;;;12.11;47.02;96904.34;5186243;27;20043;-86
2024/04/18 06:03:21;;;;;;;3.25;2.47;;;;;;;11.89;47.79;96899.31;5183064;27;20118;-86
2024/04/18 06:05:46;;;;;;;3.95;2.55;;;;;;;11.93;47.47;96903.81;5182135;27;20023;-88
2024/04/18 06:08:12;;;;;;;5.10;2.58;;;;;;;11.91;47.83;96907.69;5156284;27;20063;-86
2024/04/18 06:10:37;;;;;;;3.72;2.55;;;;;;;12.17;47.07;96916.34;5196114;27;20091;-84
2024/04/18 06:13:07;;;;;;;4.05;2.38;;;;;;;12.13;47.13;96912.69;5185325;27;20026;-87
2024/04/18 06:15:34;;;;;;;4.63;3.15;;;;;;;12.03;47.13;96894.41;5185408;27;20016;-88
2024/04/18 06:18:00;;;;;;;4.47;2.80;;;;;;;12.21;46.69;96912.16;5160348;27;20023;-86
2024/04/18 06:20:27;;;;;;;3.75;2.38;;;;;;;12.13;47.34;96930.94;5155413;27;20011;-85
2024/04/18 06:22:52;;;;;;;5.00;2.42;;;;;;;12.08;47.43;96926.53;5185196;27;20024;-85
2024/04/18 06:25:18;;;;;;;3.90;2.63;;;;;;;12.17;47.57;96938.00;5163736;27;20011;-83
2024/04/18 06:27:44;;;;;;;4.97;2.83;;;;;;;12.03;47.75;96915.28;5212739;27;20027;-85
2024/04/18 06:30:10;;;;;;;5.78;3.20;;;;;;;12.14;47.33;96943.75;5180599;27;20027;-86
2024/04/18 06:32:36;;;;;;;5.25;3.33;;;;;;;11.92;47.52;96930.94;5162356;27;20011;-87
2024/04/18 06:35:02;;;;;;;4.47;3.10;;;;;;;12.09;46.96;96937.75;5163998;27;20039;-86
2024/04/18 06:37:28;;;;;;;6.38;2.88;;;;;;;11.94;47.04;96946.31;5177278;27;20009;-89
2024/04/18 06:39:53;;;;;;;3.45;2.45;;;;;;;12.12;46.31;96958.13;5167189;27;20011;-88
2024/04/18 06:42:19;;;;;;;3.80;2.47;;;;;;;11.88;47.05;96939.53;5222389;27;20007;-89
2024/04/18 06:44:44;;;;;;;4.90;3.40;;;;;;;12.03;47.09;96952.63;5169046;27;20007;-86
2024/04/18 06:47:10;;;;;;;5.70;3.40;;;;;;;12.05;47.75;96966.19;5164414;27;20013;-89
2024/04/18 06:49:36;;;;;;;6.80;3.38;;;;;;;12.11;47.16;96965.13;5139455;27;20026;-89
2024/04/18 06:52:22;;;;;;;5.47;3.60;;;;;;;12.42;46.58;96974.84;5193840;27;20011;-87
2024/04/18 06:54:47;;;;;;;6.05;3.75;;;;;;;11.88;47.62;96942.91;5164548;27;20464;-87
2024/04/18 06:57:13;;;;;;;5.00;3.35;;;;;;;12.16;46.96;96972.97;5192351;27;20008;-88
2024/04/18 06:59:38;;;;;;;6.07;4.00;;;;;;;12.05;47.30;96989.69;5185634;27;20023;-86
2024/04/18 07:02:04;;;;;;;6.75;3.55;;;;;;;12.02;47.64;96955.50;5211890;27;20052;-85
2024/04/18 07:04:29;;;;;;;6.13;4.00;;;;;;;12.10;47.70;96981.06;5165181;27;20019;-87
2024/04/18 07:06:56;;;;;;;7.45;4.15;;;;;;;12.11;48.26;96990.47;5188973;27;20448;-87
2024/04/18 07:09:21;;;;;;;7.32;3.97;;;;;;;12.27;47.58;97001.69;5196780;27;20011;-87
2024/04/18 07:11:47;;;;;;;7.47;4.45;;;;;;;12.25;47.68;96995.97;5166783;27;20029;-87
2024/04/18 07:14:13;;;;;;;7.40;4.38;;;;;;;12.25;47.64;96996.75;5165623;27;20081;-86
2024/04/18 07:16:38;;;;;;;8.60;4.43;;;;;;;12.38;47.02;97005.91;5187723;27;20091;-88
2024/04/18 07:19:04;;;;;;;8.32;4.78;;;;;;;12.27;47.80;97009.53;5159338;27;20589;-88
2024/04/18 07:36:59;;;;;;;13.43;5.72;;;;;;;12.62;47.58;97041.97;5541218;21;19934;-87
2024/04/18 07:47:00;;;;;;;8.85;5.53;;;;;;;12.72;47.29;97044.59;5818509;21;20014;-87
2024/04/18 07:49:26;;;;;;;10.70;5.55;;;;;;;12.79;47.48;97046.94;5232564;27;20018;-86
2024/04/18 07:54:27;;;;;;;;;;;;;;;13.01;47.45;97068.34;5779273;21;20002;-87
2024/04/18 07:56:52;;;;;;;8.88;5.30;;;;;;;12.66;48.00;97027.34;5442627;22;19934;-87
2024/04/18 07:59:17;;;;;;;11.90;6.65;;;;;;;12.77;47.81;97033.38;5403070;22;20014;-87
2024/04/18 08:01:43;;;;;;;7.10;4.78;;;;;;;13.11;47.84;97068.34;5240567;27;20040;-87
2024/04/18 08:09:18;;;;;;;;;;;;;;;13.62;46.47;97088.44;6228752;21;20590;-86
2024/04/18 08:20:17;;;;;;;10.43;6.97;;;;;;;13.92;46.62;97089.38;5930316;21;20018;-86
2024/04/18 08:22:43;;;;;;;10.77;6.53;;;;;;;13.79;46.43;97095.97;5674298;22;19999;-88
2024/04/18 08:27:44;;;;;;;;;;;;;;;13.91;47.17;97100.91;5532797;21;20028;-88
2024/04/18 08:30:10;;;;;;;9.18;5.82;;;;;;;13.71;47.36;97088.69;5384733;22;19927;-88
2024/04/18 08:35:11;;;;;;;;;;;;;;;14.46;46.02;97102.75;5689284;21;20054;-86
2024/04/18 09:06:02;;;;;;;10.40;6.20;;;;;;;14.75;45.91;97124.63;5285112;26;20006;-88
2024/04/18 09:08:28;;;;;;;11.77;7.07;;;;;;;15.26;45.26;97135.78;5303731;22;20004;-87
2024/04/18 09:10:53;;;;;;;10.70;6.75;;;;;;;15.42;43.92;97144.31;5413251;22;20008;-89
2024/04/18 09:13:19;;;;;;;9.80;6.22;;;;;;;15.32;44.58;97135.47;5247170;22;20003;-90
2024/04/18 09:20:51;;;;;;;6.57;4.45;;;;;;;15.47;42.90;97145.06;5225291;27;19935;-86
2024/04/18 09:23:18;;;;;;;8.55;5.28;;;;;;;15.55;42.84;97151.53;5197765;27;20008;-86
2024/04/18 09:25:44;;;;;;;6.65;5.40;;;;;;;15.22;43.68;97147.91;5190176;27;19996;-87
2024/04/18 09:28:09;;;;;;;7.75;5.18;;;;;;;15.33;43.38;97144.88;5372813;22;20060;-87
2024/04/18 09:30:37;;;;;;;6.82;4.57;;;;;;;14.82;43.08;97136.63;5204586;27;20011;-86
2024/04/18 09:33:04;;;;;;;9.50;6.07;;;;;;;14.73;43.69;97163.41;5231721;27;20014;-88
2024/04/18 09:35:31;;;;;;;8.70;5.35;;;;;;;14.96;44.24;97161.97;5340301;22;20003;-86
2024/04/18 09:37:57;;;;;;;7.90;5.35;;;;;;;14.63;44.04;97158.22;5396667;22;20077;-86
2024/04/18 09:43:21;;;;;;;;;;;;;;;15.26;42.96;97175.13;5511131;21;20056;-87
2024/04/18 09:45:51;;;;;;;6.97;5.43;;;;;;;14.88;43.50;97183.50;5209113;27;19938;-86
2024/04/18 09:48:18;;;;;;;8.70;5.38;;;;;;;14.73;42.80;97181.75;5234999;27;20049;-86
2024/04/18 09:50:44;;;;;;;6.90;4.85;;;;;;;14.82;43.29;97181.97;5227444;27;20023;-87
2024/04/18 09:53:10;;;;;;;6.82;5.07;;;;;;;14.97;42.83;97184.50;5183156;27;20019;-85
2024/04/18 09:55:37;;;;;;;8.20;5.15;;;;;;;15.19;42.93;97185.16;5174464;27;20353;-85
2024/04/18 09:58:04;;;;;;;7.53;5.03;;;;;;;15.34;43.07;97180.56;5232546;27;19998;-87
2024/04/18 10:00:31;;;;;;;8.85;4.90;;;;;;;15.60;42.35;97195.31;5228128;27;20034;-84
2024/04/18 10:02:57;;;;;;;9.50;5.65;;;;;;;15.53;41.55;97170.19;5193364;27;20002;-84
2024/04/18 10:05:23;;;;;;;8.25;5.40;;;;;;;15.40;41.30;97178.69;5247799;27;20035;-87
2024/04/18 10:07:49;;;;;;;7.85;5.53;;;;;;;15.14;41.30;97171.00;5220270;27;20359;-85
2024/04/18 10:10:15;;;;;;;8.18;5.53;;;;;;;15.23;41.56;97194.03;5291753;27;20046;-85
2024/04/18 10:12:41;;;;;;;8.23;5.28;;;;;;;15.32;42.56;97171.44;5196273;27;20338;-85
2024/04/18 10:15:07;;;;;;;10.13;6.43;;;;;;;15.31;43.13;97201.31;5223541;27;19999;-88
2024/04/18 10:17:33;;;;;;;10.50;6.22;;;;;;;15.48;43.02;97199.09;5229825;27;20011;-86
2024/04/18 10:20:02;;;;;;;8.23;6.15;;;;;;;15.95;43.62;97209.19;5180846;27;20020;-86
2024/04/18 10:22:31;;;;;;;9.18;5.57;;;;;;;16.24;40.93;97190.78;5329489;22;20012;-87
2024/04/18 10:24:56;;;;;;;9.05;6.18;;;;;;;15.79;40.51;97211.19;5152477;27;20019;-87
2024/04/18 10:27:22;;;;;;;8.13;5.40;;;;;;;15.76;39.95;97201.25;5208164;27;20007;-88
2024/04/18 10:29:55;;;;;;;8.07;5.38;;;;;;;15.76;40.00;97212.53;5216271;27;20078;-88
2024/04/18 10:32:28;;;;;;;7.07;4.45;;;;;;;15.64;40.59;97177.97;5184713;27;20471;-89
2024/04/18 10:34:53;;;;;;;9.95;5.47;;;;;;;15.63;41.08;97218.41;5218876;27;20015;-87
2024/04/18 10:37:20;;;;;;;7.50;4.90;;;;;;;15.70;40.92;97229.38;5210230;27;20611;-87
2024/04/18 10:39:46;;;;;;;13.77;8.63;;;;;;;15.94;41.45;97211.06;5184260;27;20012;-85
2024/04/18 10:42:12;;;;;;;10.20;7.07;;;;;;;16.11;39.44;97210.63;5150365;27;20008;-89
2024/04/18 10:44:37;;;;;;;8.63;5.55;;;;;;;16.22;39.36;97219.16;5176147;27;20055;-87
2024/04/18 10:47:04;;;;;;;8.50;5.85;;;;;;;16.56;41.50;97224.28;5203414;27;20015;-90
2024/04/18 10:49:29;;;;;;;8.15;6.00;;;;;;;17.04;39.12;97211.06;5153068;27;20088;-89
2024/04/18 10:51:57;;;;;;;7.85;5.22;;;;;;;17.39;37.86;97216.09;5131644;27;20107;-90
2024/04/18 10:54:22;;;;;;;8.88;5.90;;;;;;;17.40;36.95;97220.28;5182777;27;20416;-89
2024/04/18 10:56:52;;;;;;;7.65;5.40;;;;;;;17.03;36.61;97196.38;5193705;27;20003;-85
2024/04/18 10:59:17;;;;;;;7.03;5.20;;;;;;;16.60;37.58;97206.09;5191538;27;20007;-87
2024/04/18 11:01:43;;;;;;;5.28;4.38;;;;;;;16.62;37.51;97235.53;5183252;27;20015;-88
2024/04/18 11:04:11;;;;;;;6.90;5.30;;;;;;;16.55;38.34;97222.72;5239915;27;20440;-89
2024/04/18 11:06:37;;;;;;;6.22;4.65;;;;;;;15.98;39.60;97253.28;5218391;27;20022;-90
2024/04/18 11:09:03;;;;;;;8.65;6.07;;;;;;;15.64;40.75;97212.84;5188777;27;20026;-88
2024/04/18 11:11:31;;;;;;;6.65;4.57;;;;;;;15.84;39.87;97225.06;5168128;27;20714;-90
2024/04/18 11:13:57;;;;;;;8.32;5.43;;;;;;;15.66;41.78;97236.22;5227154;27;20063;-89
2024/04/18 11:16:26;;;;;;;8.25;6.00;;;;;;;15.55;42.05;97238.91;5214469;27;20345;-90
2024/04/18 11:18:55;;;;;;;9.15;5.65;;;;;;;15.59;42.96;97197.16;5162776;27;20333;-88
2024/04/18 11:21:20;;;;;;;7.60;5.45;;;;;;;15.95;42.77;97241.50;5194664;27;20011;-89
2024/04/18 11:23:55;;;;;;;7.13;4.68;;;;;;;16.53;40.83;97245.88;5187794;27;20011;-91
2024/04/18 11:26:30;;;;;;;7.38;5.13;;;;;;;16.64;42.07;97241.31;5237428;27;20020;-91
2024/04/18 11:28:57;;;;;;;5.90;4.65;;;;;;;16.59;40.60;97215.84;5250327;22;20003;-89
2024/04/18 11:31:22;;;;;;;7.07;4.75;;;;;;;16.84;41.95;97222.66;5187304;27;20011;-86
2024/04/18 11:33:48;;;;;;;6.05;4.30;;;;;;;17.48;38.37;97238.06;5182303;27;20035;-87
2024/04/18 11:36:15;;;;;;;6.40;4.85;;;;;;;17.75;37.93;97237.38;5239795;27;20041;-86
2024/04/18 11:38:41;;;;;;;7.20;4.85;;;;;;;18.04;35.93;97246.13;5226699;27;20007;-87
2024/04/18 11:41:08;;;;;;;6.75;4.35;;;;;;;17.35;37.47;97254.59;5223657;27;20000;-84
2024/04/18 11:43:33;;;;;;;5.85;4.40;;;;;;;16.63;39.25;97251.03;5238244;27;20008;-86
2024/04/18 11:45:59;;;;;;;6.40;4.60;;;;;;;16.46;39.18;97258.59;5127971;27;20004;-85
2024/04/18 11:48:24;;;;;;;5.47;4.53;;;;;;;16.22;40.47;97267.22;5240571;27;20019;-88
2024/04/18 11:50:50;;;;;;;6.57;4.40;;;;;;;16.25;40.53;97258.81;5192389;27;20453;-86
2024/04/18 11:53:15;;;;;;;6.85;5.07;;;;;;;16.01;41.04;97258.00;5157752;27;20522;-88
2024/04/18 11:55:40;;;;;;;8.05;5.28;;;;;;;16.05;41.46;97259.00;5189518;27;20004;-89
2024/04/18 11:58:06;;;;;;;6.20;5.22;;;;;;;16.38;41.71;97259.19;5219489;27;20023;-88
2024/04/18 12:00:32;;;;;;;7.38;5.13;;;;;;;16.81;40.81;97252.13;5210266;27;20012;-89
2024/04/18 12:02:59;;;;;;;6.28;4.70;;;;;;;16.73;41.02;97238.84;5239455;27;20019;-83
2024/04/18 12:05:24;;;;;;;6.15;4.40;;;;;;;16.98;41.21;97267.47;5224706;27;20010;-81
2024/04/18 12:07:50;;;;;;;5.32;3.85;;;;;;;17.28;39.59;97260.19;5263678;27;20015;-82
2024/04/18 12:10:16;;;;;;;4.38;3.28;;;;;;;18.13;36.40;97258.34;5218460;27;20023;-83
2024/04/18 12:12:42;;;;;;;4.07;2.90;;;;;;;18.70;34.51;97254.66;5206301;27;20008;-82
2024/04/18 12:15:09;;;;;;;3.20;2.90;;;;;;;19.07;34.10;97258.09;5236252;27;20582;-82
2024/04/18 12:17:35;;;;;;;3.28;2.47;;;;;;;19.30;32.32;97244.97;5185438;27;19999;-81
2024/04/18 12:20:01;;;;;;;3.58;2.20;;;;;;;19.61;32.27;97251.06;5178468;27;20012;-81
2024/04/18 12:22:26;;;;;;;4.28;3.38;;;;;;;19.49;34.08;97258.75;5217617;27;20003;-82
2024/04/18 12:24:52;;;;;;;4.00;3.08;;;;;;;19.72;33.30;97250.81;5177412;27;20003;-86
2024/04/18 12:27:17;;;;;;;4.22;3.33;;;;;;;19.97;31.61;97255.50;5211794;27;20007;-85
2024/04/18 12:29:46;;;;;;;5.53;3.65;;;;;;;19.32;33.52;97248.06;5187274;27;20008;-84
2024/04/18 12:32:12;;;;;;;4.35;3.45;;;;;;;19.02;35.03;97242.38;5228242;27;20007;-81
2024/04/18 12:34:38;;;;;;;4.13;3.38;;;;;;;19.03;33.02;97252.66;5242052;27;20025;-80
2024/04/18 12:37:04;;;;;;;4.30;3.42;;;;;;;18.56;35.77;97259.13;5233055;27;20036;-84
2024/04/18 12:39:29;;;;;;;3.97;3.25;;;;;;;18.71;34.10;97259.63;5178623;27;20003;-84
2024/04/18 12:41:55;;;;;;;4.68;3.55;;;;;;;19.33;31.61;97252.25;5208032;27;19999;-80
2024/04/18 12:44:21;;;;;;;4.10;3.05;;;;;;;19.14;32.99;97270.91;5195901;27;20023;-81
2024/04/18 12:46:46;;;;;;;4.97;3.58;;;;;;;18.96;33.94;97267.34;5190650;27;20003;-80
2024/04/18 12:49:12;;;;;;;4.40;3.75;;;;;;;19.20;31.87;97261.81;5243267;22;20015;-80
2024/04/18 12:51:37;;;;;;;4.30;3.33;;;;;;;19.34;31.87;97262.53;5187138;27;20027;-83
2024/04/18 12:54:02;;;;;;;4.97;4.22;;;;;;;18.88;33.19;97253.78;5188564;27;20051;-83
2024/04/18 12:56:28;;;;;;;5.07;3.47;;;;;;;18.38;34.40;97258.94;5151362;27;20525;-84